Time;durP1;ratioP1;P1;durP2;ratioP2;P2;SDS_P1;SDS_P2;PMS_P1;PMS_P2;Temp;Humidity;BMP_temperature;BMP_pressure;BME280_temperature;BME280_humidity;BME280_pressure;Samples;Min_cycle;Max_cycle;Signal;HPM_P1;HPM_P2
2021/03/05 00:00:22;;;;;;;97.80;50.35;;;;;;;5.03;84.56;97727.84;1832779;77;21078;-72
2021/03/05 00:02:52;;;;;;;102.20;52.05;;;;;;;4.97;85.00;97732.36;1827815;78;21523;-72
2021/03/05 00:05:18;;;;;;;103.30;55.52;;;;;;;4.97;84.38;97733.70;1824543;77;21122;-71
2021/03/05 00:07:44;;;;;;;100.38;51.18;;;;;;;4.97;84.05;97734.23;1824719;78;21428;-72
2021/03/05 00:10:14;;;;;;;99.17;53.35;;;;;;;4.94;84.47;97726.66;1824639;77;21103;-71
2021/03/05 00:12:40;;;;;;;96.55;50.17;;;;;;;4.91;84.66;97728.52;1824738;78;21075;-72
2021/03/05 00:15:08;;;;;;;97.02;49.13;;;;;;;4.86;84.81;97731.13;1824642;77;21237;-71
2021/03/05 00:17:35;;;;;;;101.72;51.90;;;;;;;4.83;85.39;97723.05;1824790;78;21099;-71
2021/03/05 00:20:05;;;;;;;107.07;52.23;;;;;;;4.85;84.82;97730.84;1824608;77;21122;-71
2021/03/05 00:22:31;;;;;;;96.72;48.83;;;;;;;4.82;84.82;97728.14;1824616;78;21105;-72
2021/03/05 00:24:57;;;;;;;98.67;47.80;;;;;;;4.78;84.76;97724.31;1824623;77;21133;-72
2021/03/05 00:27:23;;;;;;;92.75;45.52;;;;;;;4.79;84.70;97722.75;1824674;78;21182;-72
2021/03/05 00:29:50;;;;;;;94.05;48.90;;;;;;;4.80;83.79;97719.53;1824564;77;21094;-72
2021/03/05 00:32:16;;;;;;;95.28;48.98;;;;;;;4.80;83.61;97710.13;1824599;78;21054;-72
2021/03/05 00:34:42;;;;;;;100.22;47.15;;;;;;;4.87;83.64;97713.95;1824709;77;21087;-72
2021/03/05 00:37:08;;;;;;;102.50;51.65;;;;;;;4.95;83.60;97716.20;1824721;78;21058;-72
2021/03/05 00:39:34;;;;;;;97.20;48.80;;;;;;;4.99;83.61;97711.97;1824677;77;21199;-72
2021/03/05 00:42:00;;;;;;;105.12;53.48;;;;;;;4.99;83.39;97720.02;1824541;78;21284;-72
2021/03/05 00:44:26;;;;;;;92.72;48.75;;;;;;;5.01;83.16;97711.17;1824598;77;21059;-72
2021/03/05 00:46:53;;;;;;;104.90;54.73;;;;;;;5.01;82.75;97713.86;1824572;78;21141;-72
2021/03/05 00:49:19;;;;;;;109.03;55.63;;;;;;;4.99;82.81;97709.28;1824601;77;21079;-72
2021/03/05 00:51:45;;;;;;;114.82;58.20;;;;;;;5.01;82.75;97709.30;1824564;78;21141;-72
2021/03/05 00:54:11;;;;;;;110.55;57.03;;;;;;;5.03;82.60;97711.73;1824538;77;21069;-72
2021/03/05 00:56:37;;;;;;;92.97;50.20;;;;;;;5.03;82.21;97704.48;1824600;78;21130;-70
2021/03/05 00:59:04;;;;;;;91.70;48.65;;;;;;;5.04;82.20;97702.60;1824543;77;21083;-69
2021/03/05 01:01:30;;;;;;;95.45;49.08;;;;;;;5.03;82.52;97707.16;1824606;78;21129;-69
2021/03/05 01:03:56;;;;;;;82.10;44.00;;;;;;;4.94;83.63;97699.81;1826497;77;21192;-70
2021/03/05 01:06:22;;;;;;;77.82;39.98;;;;;;;4.93;83.03;97701.69;1826546;78;21117;-70
2021/03/05 01:08:49;;;;;;;68.40;33.98;;;;;;;4.78;83.10;97702.30;1826597;77;21062;-70
2021/03/05 01:11:15;;;;;;;56.15;32.13;;;;;;;4.55;82.81;97701.75;1826615;78;21106;-70
2021/03/05 01:13:42;;;;;;;53.38;28.85;;;;;;;4.43;82.31;97708.02;1826609;77;21193;-70
2021/03/05 01:16:08;;;;;;;57.48;31.65;;;;;;;4.35;82.50;97708.98;1826653;78;21255;-70
2021/03/05 01:18:34;;;;;;;64.45;31.97;;;;;;;4.31;83.31;97708.67;1826510;77;21083;-69
2021/03/05 01:21:01;;;;;;;61.77;33.83;;;;;;;4.24;83.29;97717.42;1826611;78;21085;-70
2021/03/05 01:23:27;;;;;;;66.67;36.28;;;;;;;3.94;83.61;97721.27;1826543;77;21022;-70
2021/03/05 01:25:53;;;;;;;58.92;32.55;;;;;;;3.77;84.19;97723.67;1826647;78;21111;-70
2021/03/05 01:28:19;;;;;;;54.88;29.02;;;;;;;3.73;83.82;97720.64;1826568;77;21259;-69
2021/03/05 01:30:45;;;;;;;41.02;23.80;;;;;;;3.65;84.04;97732.58;1826623;78;21113;-70
2021/03/05 01:33:11;;;;;;;35.80;20.43;;;;;;;3.58;83.72;97734.59;1826674;78;21090;-69
2021/03/05 01:35:37;;;;;;;36.85;19.90;;;;;;;3.57;83.14;97732.16;1826585;77;21107;-69
2021/03/05 01:38:04;;;;;;;36.55;21.80;;;;;;;3.45;83.32;97733.57;1826618;78;21412;-69
2021/03/05 01:40:36;;;;;;;45.95;24.43;;;;;;;3.36;84.09;97743.05;1826555;77;21187;-70
2021/03/05 01:43:10;;;;;;;56.37;29.60;;;;;;;3.23;83.77;97741.45;1826539;78;21087;-71
2021/03/05 01:45:37;;;;;;;56.75;29.52;;;;;;;3.04;84.01;97740.83;1826681;77;21042;-71
2021/03/05 01:48:07;;;;;;;72.08;35.55;;;;;;;2.73;84.42;97744.75;1826554;78;21118;-71
2021/03/05 01:50:50;;;;;;;60.78;31.12;;;;;;;2.76;84.22;97742.14;1824993;77;21015;-70
2021/03/05 01:53:16;;;;;;;68.30;34.25;;;;;;;2.67;84.13;97746.23;1826671;78;22048;-71
2021/03/05 01:55:43;;;;;;;63.08;31.77;;;;;;;2.51;84.43;97740.55;1826497;77;21121;-71
2021/03/05 01:58:09;;;;;;;70.08;34.48;;;;;;;2.51;83.98;97731.72;1826670;78;21094;-71
2021/03/05 02:00:43;;;;;;;59.53;28.95;;;;;;;2.47;83.10;97732.69;1826559;77;21423;-71
2021/03/05 02:03:09;;;;;;;63.28;31.87;;;;;;;2.47;83.07;97733.22;1826159;78;21102;-71
2021/03/05 02:05:37;;;;;;;74.03;34.65;;;;;;;2.44;82.73;97731.02;1821389;78;21146;-71
2021/03/05 02:08:05;;;;;;;72.20;34.90;;;;;;;2.47;82.94;97732.69;1826497;78;21066;-71
2021/03/05 02:10:31;;;;;;;72.65;32.48;;;;;;;2.53;82.95;97739.78;1826638;77;21102;-71
2021/03/05 02:12:57;;;;;;;66.37;31.05;;;;;;;2.57;82.87;97736.66;1826602;78;21157;-71
2021/03/05 02:15:24;;;;;;;67.47;33.15;;;;;;;2.57;83.03;97748.70;1826573;77;21031;-71
2021/03/05 02:18:22;;;;;;;69.72;33.48;;;;;;;2.49;82.88;97754.69;1826570;78;21474;-71
2021/03/05 02:21:11;;;;;;;60.55;33.42;;;;;;;2.48;82.75;97750.39;1826515;78;21189;-71
2021/03/05 02:24:23;;;;;;;66.40;33.25;;;;;;;2.43;82.65;97742.77;1826557;77;21094;-72
2021/03/05 02:27:21;;;;;;;66.57;33.73;;;;;;;2.34;82.83;97744.98;1826732;78;21468;-71
2021/03/05 02:29:58;;;;;;;67.72;32.35;;;;;;;2.20;83.37;97742.25;1807013;78;21034;-71
2021/03/05 02:32:40;;;;;;;70.32;34.65;;;;;;;2.11;83.37;97732.42;1826553;78;21269;-72
2021/03/05 02:35:07;;;;;;;72.58;34.03;;;;;;;2.10;82.64;97733.47;1826538;77;21045;-71
2021/03/05 02:37:33;;;;;;;71.37;32.67;;;;;;;2.09;82.92;97734.52;1794589;78;21125;-71
2021/03/05 02:40:05;;;;;;;72.10;32.55;;;;;;;2.06;83.04;97740.34;1794460;78;21146;-71
2021/03/05 02:42:57;;;;;;;71.82;34.60;;;;;;;2.02;83.92;97740.50;1826650;78;21546;-71
2021/03/05 02:45:27;;;;;;;68.85;35.70;;;;;;;1.93;84.52;97737.87;1825918;77;21202;-71
2021/03/05 02:48:12;;;;;;;66.50;32.53;;;;;;;1.90;83.87;97740.50;1826473;78;21062;-72
2021/03/05 02:50:41;;;;;;;66.77;32.25;;;;;;;1.92;84.77;97742.94;1826555;77;21471;-72
2021/03/05 02:53:13;;;;;;;66.57;32.20;;;;;;;2.00;83.78;97749.80;1826643;78;21090;-72
2021/03/05 02:55:41;;;;;;;64.90;33.45;;;;;;;1.92;85.45;97750.43;1826685;77;21454;-72
2021/03/05 02:58:08;;;;;;;64.47;31.70;;;;;;;1.85;85.38;97743.56;1794164;78;21299;-72
2021/03/05 03:00:34;;;;;;;68.12;33.10;;;;;;;1.84;85.40;97747.28;1826429;77;21031;-72
2021/03/05 03:03:00;;;;;;;67.97;31.75;;;;;;;1.79;85.94;97741.28;1825935;78;21117;-72
2021/03/05 03:05:28;;;;;;;64.42;32.40;;;;;;;1.76;85.64;97747.09;1824502;77;21011;-72
2021/03/05 03:07:54;;;;;;;60.52;29.10;;;;;;;1.66;86.47;97746.32;1824509;78;21030;-72
2021/03/05 03:10:22;;;;;;;64.75;32.17;;;;;;;1.64;86.41;97743.59;1824500;77;21465;-72
2021/03/05 03:12:48;;;;;;;61.63;29.85;;;;;;;1.57;86.81;97737.53;1824444;78;21105;-72
2021/03/05 03:15:15;;;;;;;63.52;30.45;;;;;;;1.59;86.34;97733.59;1797137;78;21046;-72
2021/03/05 03:17:45;;;;;;;63.28;33.05;;;;;;;1.64;86.09;97732.39;1824678;78;21103;-72
2021/03/05 03:20:14;;;;;;;60.33;31.55;;;;;;;1.75;85.47;97729.44;1824652;77;21127;-71
2021/03/05 03:22:40;;;;;;;63.10;32.90;;;;;;;1.85;85.79;97724.33;1824898;78;27016;-71
2021/03/05 03:25:09;;;;;;;57.15;29.18;;;;;;;1.97;85.58;97721.17;1824727;77;21011;-71
2021/03/05 03:27:35;;;;;;;58.43;28.97;;;;;;;2.06;85.07;97728.84;1824887;78;21071;-71
2021/03/05 03:30:01;;;;;;;64.35;31.25;;;;;;;2.07;84.90;97731.27;1824684;77;21082;-71
2021/03/05 03:32:28;;;;;;;54.80;28.50;;;;;;;2.05;84.86;97725.36;1824697;78;21078;-71
2021/03/05 03:34:54;;;;;;;56.70;28.02;;;;;;;2.02;84.83;97734.34;1824716;77;21194;-71
2021/03/05 03:37:20;;;;;;;63.85;29.98;;;;;;;1.96;85.46;97734.21;1824627;78;21152;-71
2021/03/05 03:39:46;;;;;;;59.77;28.07;;;;;;;1.83;85.97;97733.63;1824729;77;21054;-71
2021/03/05 03:42:12;;;;;;;55.98;27.27;;;;;;;1.78;86.09;97737.50;1824697;78;21125;-71
2021/03/05 03:44:38;;;;;;;59.83;29.67;;;;;;;1.84;85.40;97740.60;1824737;77;21098;-71
2021/03/05 03:47:05;;;;;;;55.60;28.50;;;;;;;1.71;86.40;97738.97;1824663;78;21190;-71
2021/03/05 03:49:37;;;;;;;65.95;31.07;;;;;;;1.74;86.05;97737.69;1824659;77;21499;-71
2021/03/05 03:52:21;;;;;;;61.90;32.03;;;;;;;1.54;86.94;97734.81;1824743;78;21066;-72
2021/03/05 03:54:47;;;;;;;62.08;33.90;;;;;;;1.52;87.00;97742.73;1824578;77;21015;-72
2021/03/05 03:57:13;;;;;;;57.95;29.95;;;;;;;1.43;87.76;97736.91;1824668;78;21154;-72
2021/03/05 03:59:39;;;;;;;61.10;30.30;;;;;;;1.45;87.88;97739.34;1824635;77;22089;-72
2021/03/05 04:02:07;;;;;;;63.65;31.40;;;;;;;1.48;87.46;97741.58;1824647;78;21565;-72
2021/03/05 04:04:34;;;;;;;58.78;29.27;;;;;;;1.40;87.93;97738.70;1826272;77;21045;-72
2021/03/05 04:07:01;;;;;;;52.75;30.00;;;;;;;1.44;87.89;97743.88;1826687;78;21491;-72
2021/03/05 04:09:27;;;;;;;57.67;30.00;;;;;;;1.40;88.55;97763.55;1826677;77;21408;-72
2021/03/05 04:11:54;;;;;;;55.43;28.35;;;;;;;1.29;88.83;97764.33;1795074;78;21479;-72
2021/03/05 04:14:22;;;;;;;58.20;28.00;;;;;;;1.23;88.93;97765.75;1826600;77;21553;-72
2021/03/05 04:16:48;;;;;;;56.83;27.93;;;;;;;1.29;88.31;97769.67;1826823;78;21082;-72
2021/03/05 04:19:15;;;;;;;58.48;28.20;;;;;;;1.39;87.39;97773.13;1826627;77;21049;-72
2021/03/05 04:21:41;;;;;;;67.37;34.63;;;;;;;1.36;87.76;97774.90;1826679;78;21515;-72
2021/03/05 04:24:07;;;;;;;57.38;30.12;;;;;;;1.40;87.50;97782.77;1826705;77;21407;-72
2021/03/05 04:26:33;;;;;;;50.98;27.70;;;;;;;1.36;87.68;97791.73;1826641;78;21106;-72
2021/03/05 04:29:00;;;;;;;53.90;29.02;;;;;;;1.32;87.79;97785.75;1826705;77;21534;-72
2021/03/05 04:31:26;;;;;;;48.85;26.52;;;;;;;1.30;87.54;97790.51;1826637;78;21526;-72
2021/03/05 04:33:52;;;;;;;48.90;26.75;;;;;;;1.32;87.38;97797.77;1826724;77;21380;-72
2021/03/05 04:36:18;;;;;;;50.83;26.57;;;;;;;1.26;87.50;97798.13;1826666;78;21288;-72
2021/03/05 04:38:44;;;;;;;59.38;29.02;;;;;;;1.17;87.68;97802.67;1826531;77;21031;-72
2021/03/05 04:41:10;;;;;;;56.68;28.32;;;;;;;1.19;87.32;97812.60;1826694;78;21145;-72
2021/03/05 04:43:36;;;;;;;58.65;28.23;;;;;;;1.24;86.80;97809.56;1826594;77;21039;-72
2021/03/05 04:46:02;;;;;;;45.05;23.80;;;;;;;1.23;86.77;97817.28;1826658;78;21118;-72
2021/03/05 04:48:29;;;;;;;55.17;26.10;;;;;;;1.22;86.53;97812.17;1826699;77;21201;-72
2021/03/05 04:50:55;;;;;;;58.50;28.05;;;;;;;1.22;86.23;97810.31;1826587;78;21130;-72
2021/03/05 04:53:21;;;;;;;56.48;28.80;;;;;;;1.26;86.08;97816.81;1826683;77;21764;-72
2021/03/05 04:55:47;;;;;;;83.03;40.95;;;;;;;1.27;86.18;97814.97;1826720;78;21134;-72
2021/03/05 04:58:13;;;;;;;84.72;38.63;;;;;;;1.28;85.68;97817.44;1826693;78;21122;-72
2021/03/05 05:00:39;;;;;;;77.22;35.68;;;;;;;1.25;85.19;97812.52;1826613;77;21987;-72
2021/03/05 05:03:06;;;;;;;59.35;31.90;;;;;;;1.21;85.56;97812.69;1826314;78;21141;-72
2021/03/05 05:05:33;;;;;;;52.03;28.80;;;;;;;1.24;85.35;97814.91;1824682;77;21055;-72
2021/03/05 05:07:59;;;;;;;55.38;28.57;;;;;;;1.33;85.42;97811.41;1824638;78;21506;-72
2021/03/05 05:10:25;;;;;;;59.90;30.27;;;;;;;1.41;85.54;97815.09;1824558;77;21026;-72
2021/03/05 05:12:51;;;;;;;49.88;27.40;;;;;;;1.44;85.41;97812.48;1824718;78;21494;-72
2021/03/05 05:15:17;;;;;;;45.20;23.83;;;;;;;1.44;85.30;97810.62;1824456;77;21137;-72
2021/03/05 05:17:44;;;;;;;43.00;23.30;;;;;;;1.38;84.81;97806.22;1824686;78;21093;-72
2021/03/05 05:20:11;;;;;;;51.00;27.82;;;;;;;1.35;84.79;97802.12;1824510;77;21091;-72
2021/03/05 05:22:38;;;;;;;43.52;21.52;;;;;;;1.37;84.60;97808.59;1824615;78;21129;-72
2021/03/05 05:25:06;;;;;;;39.67;18.55;;;;;;;1.34;84.62;97809.02;1824524;77;21253;-72
2021/03/05 05:27:32;;;;;;;38.17;19.30;;;;;;;1.32;84.34;97814.59;1824525;78;21118;-72
2021/03/05 05:29:58;;;;;;;34.15;17.10;;;;;;;1.30;84.28;97805.19;1824514;77;21086;-72
2021/03/05 05:32:25;;;;;;;42.23;19.90;;;;;;;1.29;84.29;97813.72;1824562;78;21122;-72
2021/03/05 05:34:51;;;;;;;56.50;29.48;;;;;;;1.28;84.36;97813.43;1824649;77;21476;-72
2021/03/05 05:37:17;;;;;;;61.33;33.45;;;;;;;1.20;84.20;97814.23;1824511;78;21393;-72
2021/03/05 05:39:43;;;;;;;59.35;28.52;;;;;;;1.26;84.61;97818.67;1824525;77;21490;-72
2021/03/05 05:42:10;;;;;;;64.07;31.68;;;;;;;1.35;84.60;97817.33;1824641;78;21105;-71
2021/03/05 05:44:36;;;;;;;61.90;31.00;;;;;;;1.41;84.48;97816.43;1824513;77;21027;-72
2021/03/05 05:47:02;;;;;;;54.13;26.42;;;;;;;1.46;84.39;97821.11;1824689;78;21526;-72
2021/03/05 05:49:28;;;;;;;43.38;20.95;;;;;;;1.51;84.22;97828.72;1824501;77;21190;-72
2021/03/05 05:51:59;;;;;;;38.58;18.30;;;;;;;1.55;84.08;97829.09;1824574;78;21510;-72
2021/03/05 05:54:25;;;;;;;41.30;19.32;;;;;;;1.58;83.96;97829.45;1824581;77;21451;-71
2021/03/05 05:56:51;;;;;;;38.23;19.62;;;;;;;1.61;83.79;97832.98;1824580;78;21117;-71
2021/03/05 05:59:18;;;;;;;35.63;20.00;;;;;;;1.66;83.77;97833.66;1824616;77;21110;-71
2021/03/05 06:01:45;;;;;;;39.03;17.87;;;;;;;1.69;83.62;97839.35;1824518;78;21199;-71
2021/03/05 06:04:12;;;;;;;36.60;19.05;;;;;;;1.72;83.69;97830.61;1825197;77;21082;-71
2021/03/05 06:06:38;;;;;;;41.25;20.52;;;;;;;1.72;83.61;97837.29;1826716;78;21165;-72
2021/03/05 06:09:05;;;;;;;39.75;19.82;;;;;;;1.74;83.57;97835.20;1826583;77;21129;-72
2021/03/05 06:11:34;;;;;;;43.28;20.85;;;;;;;1.74;83.47;97834.67;1826613;78;21134;-71
2021/03/05 06:14:01;;;;;;;;;;;;;;;1.73;83.33;97837.58;1828873;77;21447;-71
2021/03/05 06:16:28;;;;;;;102.30;50.15;;;;;;;1.72;83.33;97842.63;1826594;78;20263;-72
2021/03/05 06:18:54;;;;;;;78.95;38.10;;;;;;;1.70;83.04;97842.83;1826500;77;21035;-71
2021/03/05 06:21:37;;;;;;;74.20;39.55;;;;;;;1.72;83.06;97847.97;1826541;78;21125;-71
2021/03/05 06:24:06;;;;;;;96.15;46.92;;;;;;;1.72;83.01;97848.79;1826632;77;21373;-72
2021/03/05 06:26:59;;;;;;;82.80;43.48;;;;;;;1.71;83.24;97852.50;1826691;78;21106;-71
2021/03/05 06:29:39;;;;;;;65.67;33.60;;;;;;;1.65;82.94;97852.88;1826541;77;21408;-72
2021/03/05 06:32:06;;;;;;;59.00;30.23;;;;;;;1.57;83.03;97859.06;1821879;78;21058;-70
2021/03/05 06:34:49;;;;;;;46.70;24.77;;;;;;;1.50;83.97;97867.67;1826472;77;21499;-70
2021/03/05 06:37:21;;;;;;;45.90;24.02;;;;;;;1.50;83.22;97870.34;1826576;78;21062;-71
2021/03/05 06:40:02;;;;;;;54.60;29.45;;;;;;;1.47;83.00;97877.48;1825542;77;21202;-72
2021/03/05 06:42:29;;;;;;;50.23;24.05;;;;;;;1.47;82.98;97880.14;1826456;78;21101;-72
2021/03/05 06:44:55;;;;;;;54.08;25.90;;;;;;;1.48;83.13;97888.45;1826593;77;21042;-72
2021/03/05 06:47:25;;;;;;;70.30;23.90;;;;;;;1.51;83.18;97892.81;1826559;78;21134;-72
2021/03/05 06:49:50;;;;;;;69.97;35.23;;;;;;;1.55;83.05;97894.01;1826455;77;21061;-73
2021/03/05 06:52:18;;;;;;;85.47;46.60;;;;;;;1.60;82.90;97894.13;1826558;78;21162;-72
2021/03/05 06:54:45;;;;;;;66.70;35.75;;;;;;;1.68;82.84;97901.02;1826440;77;21082;-72
2021/03/05 06:57:14;;;;;;;56.13;28.60;;;;;;;1.72;82.63;97907.56;1826648;78;21083;-72
2021/03/05 06:59:45;;;;;;;48.92;25.02;;;;;;;1.72;82.56;97909.42;1826105;77;46961;-72
2021/03/05 07:02:15;;;;;;;43.83;20.82;;;;;;;1.65;82.92;97908.16;1826532;78;21094;-73
2021/03/05 07:04:49;;;;;;;37.35;19.25;;;;;;;1.63;83.15;97903.05;1825552;77;21196;-71
2021/03/05 07:07:18;;;;;;;37.58;17.90;;;;;;;1.53;83.14;97908.08;1824430;78;21102;-72
2021/03/05 07:09:47;;;;;;;36.25;19.87;;;;;;;1.61;82.74;97912.30;1824262;77;21034;-72
2021/03/05 07:12:15;;;;;;;41.02;19.65;;;;;;;1.61;83.04;97910.45;1823257;78;21514;-72
2021/03/05 07:14:46;;;;;;;38.38;19.82;;;;;;;1.65;83.00;97914.84;1824487;77;21086;-72
2021/03/05 07:17:22;;;;;;;49.23;23.95;;;;;;;1.77;82.74;97914.36;1890249;76;22228;-70
2021/03/05 07:19:48;;;;;;;41.63;20.95;;;;;;;1.73;82.77;97915.05;1856975;77;21385;-71
2021/03/05 07:22:14;;;;;;;69.55;33.65;;;;;;;1.77;82.95;97924.23;1854142;77;22041;-70
2021/03/05 07:24:40;;;;;;;53.38;25.32;;;;;;;1.75;83.00;97923.66;1768717;77;21523;-71
2021/03/05 07:27:10;;;;;;;43.95;25.17;;;;;;;1.78;82.66;97929.34;1854139;77;20917;-70
2021/03/05 07:29:46;;;;;;;38.70;20.57;;;;;;;1.70;83.26;97930.47;1854134;77;21072;-71
2021/03/05 07:32:36;;;;;;;48.30;30.08;;;;;;;1.73;83.21;97923.06;1854178;77;20900;-71
2021/03/05 07:35:15;;;;;;;184.10;114.92;;;;;;;1.80;82.83;97930.48;1854076;77;21265;-72
2021/03/05 07:37:59;;;;;;;224.75;131.00;;;;;;;1.73;83.18;97935.91;1828880;77;21417;-72
2021/03/05 07:40:26;;;;;;;114.92;66.20;;;;;;;1.80;82.87;97932.63;1854106;77;21027;-71
2021/03/05 07:42:52;;;;;;;71.02;45.15;;;;;;;1.70;83.00;97939.82;1854224;77;21055;-71
2021/03/05 07:45:18;;;;;;;39.08;23.75;;;;;;;1.76;82.75;97947.98;1854118;77;21028;-71
2021/03/05 07:47:46;;;;;;;39.23;23.25;;;;;;;1.63;82.98;97950.31;1854125;77;21155;-71
2021/03/05 07:50:14;;;;;;;36.63;20.08;;;;;;;1.55;83.06;97951.95;1853982;77;21019;-71
2021/03/05 07:52:41;;;;;;;37.90;23.30;;;;;;;1.51;83.18;97960.09;1854425;77;20980;-71
2021/03/05 07:55:08;;;;;;;30.15;18.23;;;;;;;1.50;83.18;97949.13;1854001;77;21083;-71
2021/03/05 07:57:44;;;;;;;34.90;18.12;;;;;;;1.47;83.57;97965.08;1854137;77;21071;-71
2021/03/05 08:00:08;;;;;;;32.13;17.67;;;;;;;1.52;83.39;97963.88;1783997;80;21213;-73
2021/03/05 08:02:54;;;;;;;38.58;20.23;;;;;;;1.26;83.90;97975.66;1784686;80;20996;-73
2021/03/05 08:05:44;;;;;;;28.42;14.05;;;;;;;1.30;83.99;97967.52;1783026;80;21063;-73
2021/03/05 08:08:24;;;;;;;48.40;28.02;;;;;;;1.29;83.60;97968.56;1784725;80;21063;-71
2021/03/05 08:10:59;;;;;;;30.50;15.35;;;;;;;1.26;83.93;97968.17;1781994;80;21452;-72
2021/03/05 08:13:47;;;;;;;31.00;17.62;;;;;;;1.22;83.77;97979.00;1788394;80;21211;-71
2021/03/05 08:16:33;;;;;;;25.57;15.18;;;;;;;1.30;83.41;97982.73;1787052;80;21114;-71
2021/03/05 08:19:14;;;;;;;29.63;17.37;;;;;;;1.33;83.67;97982.27;1799915;79;21408;-71
2021/03/05 08:21:57;;;;;;;28.20;17.20;;;;;;;1.29;83.93;97991.77;1790493;80;21032;-71
2021/03/05 08:24:31;;;;;;;29.45;15.20;;;;;;;1.17;83.91;97993.00;1799770;79;21103;-71
2021/03/05 08:27:16;;;;;;;30.55;14.95;;;;;;;1.26;83.87;98001.54;1790505;80;21216;-72
2021/03/05 08:30:11;;;;;;;29.77;15.38;;;;;;;1.26;83.99;98002.88;1799207;79;21546;-72
2021/03/05 08:32:54;;;;;;;35.85;19.30;;;;;;;1.32;83.92;98009.49;1790029;80;21106;-70
2021/03/05 08:35:37;;;;;;;33.60;19.67;;;;;;;1.38;84.40;98010.47;1817560;75;22383;-70
2021/03/05 08:38:15;;;;;;;32.45;16.85;;;;;;;1.39;84.17;98007.58;1785960;80;21055;-71
2021/03/05 08:40:49;;;;;;;28.90;17.02;;;;;;;1.46;84.34;98014.72;1786028;79;21136;-72
2021/03/05 08:43:25;;;;;;;25.95;14.15;;;;;;;1.49;84.13;98020.94;1785881;79;21090;-71
2021/03/05 08:46:10;;;;;;;25.40;14.65;;;;;;;1.43;83.62;98018.63;1785692;80;20979;-72
2021/03/05 08:48:43;;;;;;;31.15;15.25;;;;;;;1.33;84.13;98020.98;1785931;79;20934;-71
2021/03/05 08:51:20;;;;;;;27.05;15.30;;;;;;;1.33;84.10;98023.14;1755969;80;20941;-72
2021/03/05 08:53:55;;;;;;;26.42;15.53;;;;;;;1.25;84.55;98019.93;1785907;79;21245;-71
2021/03/05 08:56:29;;;;;;;28.65;14.58;;;;;;;1.26;84.85;98026.91;1785836;80;21133;-72
2021/03/05 08:59:05;;;;;;;21.12;12.80;;;;;;;1.22;84.52;98025.72;1785961;79;21464;-71
2021/03/05 09:01:35;;;;;;;26.10;13.98;;;;;;;1.22;85.01;98028.39;1785945;80;21114;-73
2021/03/05 09:04:20;;;;;;;25.80;16.02;;;;;;;1.10;85.21;98031.75;1785841;79;21123;-71
2021/03/05 09:06:51;;;;;;;31.97;18.37;;;;;;;1.10;85.64;98028.27;1785918;79;22004;-71
2021/03/05 09:09:19;;;;;;;35.63;18.73;;;;;;;1.15;85.65;98037.78;1785786;79;21030;-72
2021/03/05 09:11:48;;;;;;;30.72;17.90;;;;;;;1.22;85.53;98039.07;1786224;79;21476;-72
2021/03/05 09:14:23;;;;;;;29.10;15.95;;;;;;;1.37;84.54;98036.88;1781263;79;21078;-72
2021/03/05 09:17:01;;;;;;;31.37;18.10;;;;;;;1.37;84.85;98044.38;1785636;80;21487;-72
2021/03/05 09:19:42;;;;;;;28.02;15.30;;;;;;;1.41;84.68;98045.55;1785863;79;21262;-71
2021/03/05 09:22:24;;;;;;;26.00;14.47;;;;;;;1.40;84.62;98043.11;1777594;80;21030;-72
2021/03/05 09:25:06;;;;;;;28.17;16.85;;;;;;;1.46;84.54;98048.09;1785237;79;21027;-71
2021/03/05 09:27:39;;;;;;;46.60;23.22;;;;;;;1.43;84.75;98061.87;1785864;80;21091;-71
2021/03/05 09:30:17;;;;;;;35.17;19.90;;;;;;;1.34;84.68;98063.48;1756947;80;21451;-72
2021/03/05 09:32:52;;;;;;;29.75;17.50;;;;;;;1.26;85.18;98065.09;1785886;80;22037;-72
2021/03/05 09:35:30;;;;;;;33.78;19.00;;;;;;;1.23;84.99;98060.72;1797532;79;21035;-72
2021/03/05 09:37:57;;;;;;;40.12;21.23;;;;;;;1.13;85.77;98068.70;1781447;80;21106;-71
2021/03/05 09:40:25;;;;;;;28.95;14.75;;;;;;;1.17;85.68;98074.93;1781405;79;21528;-71
2021/03/05 09:43:00;;;;;;;24.87;13.70;;;;;;;1.16;85.65;98074.64;1781643;80;21126;-71
2021/03/05 09:45:50;;;;;;;29.48;15.95;;;;;;;1.15;85.31;98074.34;1781143;79;22115;-72
2021/03/05 09:48:32;;;;;;;22.52;12.85;;;;;;;1.19;85.38;98077.67;1780832;80;21456;-71
2021/03/05 09:51:07;;;;;;;18.45;12.28;;;;;;;1.05;86.23;98086.32;1780835;80;21050;-71
2021/03/05 09:53:36;;;;;;;15.25;8.90;;;;;;;0.99;85.13;98080.51;1780745;79;21147;-72
2021/03/05 09:56:07;;;;;;;20.70;11.50;;;;;;;0.97;83.65;98088.44;1780627;80;21091;-72
2021/03/05 09:58:35;;;;;;;17.48;7.85;;;;;;;1.13;83.81;98091.39;1780935;79;21483;-72
2021/03/05 10:01:01;;;;;;;13.95;8.25;;;;;;;1.29;82.42;98101.23;1780774;80;21134;-72
2021/03/05 10:03:27;;;;;;;14.45;8.98;;;;;;;1.48;82.25;98105.58;1780741;79;21500;-71
2021/03/05 10:05:54;;;;;;;14.00;9.35;;;;;;;1.47;81.87;98106.62;1780908;80;21114;-72
2021/03/05 10:08:30;;;;;;;13.62;8.85;;;;;;;1.48;82.23;98103.43;1780908;80;21558;-72
2021/03/05 10:11:12;;;;;;;13.78;9.55;;;;;;;1.48;82.53;98109.59;1780937;80;21194;-72
2021/03/05 10:13:56;;;;;;;16.37;10.43;;;;;;;1.29;82.23;98111.39;1756689;79;21126;-71
2021/03/05 10:16:40;;;;;;;10.55;7.22;;;;;;;1.26;82.84;98111.00;1780846;80;21088;-71
2021/03/05 10:19:14;;;;;;;11.55;7.60;;;;;;;1.05;82.28;98114.34;1780799;79;21020;-70
2021/03/05 10:21:47;;;;;;;11.18;6.92;;;;;;;0.73;84.08;98132.19;1780825;80;21476;-72
2021/03/05 10:24:19;;;;;;;9.83;5.92;;;;;;;0.78;83.96;98145.72;1779992;79;22045;-72
2021/03/05 10:27:18;;;;;;;9.85;6.12;;;;;;;0.75;83.50;98151.45;1780899;80;21468;-71
2021/03/05 10:29:50;;;;;;;10.55;5.67;;;;;;;0.92;82.98;98150.44;1780478;79;21110;-71
2021/03/05 10:32:26;;;;;;;12.90;7.30;;;;;;;0.87;82.88;98152.95;1779878;80;21107;-72
2021/03/05 10:34:54;;;;;;;14.98;9.50;;;;;;;0.98;83.41;98163.45;1780685;79;21110;-72
2021/03/05 10:37:20;;;;;;;11.93;6.60;;;;;;;0.90;82.58;98168.52;1781047;80;21199;-72
2021/03/05 10:39:47;;;;;;;14.07;8.70;;;;;;;0.86;81.95;98171.33;1780687;79;21027;-72
2021/03/05 10:42:15;;;;;;;13.48;9.10;;;;;;;1.02;82.25;98173.47;1780837;80;21066;-72
2021/03/05 10:44:43;;;;;;;10.03;6.45;;;;;;;0.95;82.71;98176.72;1780805;79;21130;-72
2021/03/05 10:47:11;;;;;;;11.68;8.13;;;;;;;1.21;82.21;98186.41;1780807;80;21074;-72
2021/03/05 10:49:38;;;;;;;16.12;7.35;;;;;;;1.18;82.08;98187.34;1780751;79;22069;-72
2021/03/05 10:52:05;;;;;;;11.80;9.00;;;;;;;1.03;82.12;98187.14;1780732;80;21111;-72
2021/03/05 10:54:32;;;;;;;11.80;8.18;;;;;;;0.90;82.38;98185.87;1780790;79;21162;-72
2021/03/05 10:56:58;;;;;;;18.12;10.93;;;;;;;0.86;82.51;98193.19;1762136;81;21171;-73
2021/03/05 10:59:24;;;;;;;12.35;8.05;;;;;;;0.97;82.12;98193.84;1780744;79;21090;-72
2021/03/05 11:01:54;;;;;;;14.90;9.23;;;;;;;0.83;82.73;98198.42;1731967;82;21287;-72
2021/03/05 11:04:22;;;;;;;12.25;7.92;;;;;;;0.94;82.60;98191.09;1756973;80;21412;-70
2021/03/05 11:06:49;;;;;;;13.65;9.03;;;;;;;0.90;82.40;98207.73;1780860;80;21106;-70
2021/03/05 11:09:17;;;;;;;14.70;9.63;;;;;;;1.03;82.46;98198.33;1780723;79;21050;-70
2021/03/05 11:11:44;;;;;;;13.35;9.48;;;;;;;1.12;81.98;98211.20;1780298;80;21102;-72
2021/03/05 11:14:11;;;;;;;13.62;9.60;;;;;;;1.21;82.05;98205.61;1780679;79;21606;-71
2021/03/05 11:16:37;;;;;;;10.32;7.12;;;;;;;1.18;81.57;98206.03;1780702;80;21082;-71
2021/03/05 11:19:04;;;;;;;11.45;8.40;;;;;;;1.15;81.01;98207.28;1780749;79;21086;-71
2021/03/05 11:21:30;;;;;;;9.28;6.58;;;;;;;1.28;81.21;98207.70;1780757;80;21091;-71
2021/03/05 11:23:57;;;;;;;16.00;8.80;;;;;;;1.24;80.97;98208.66;1780721;79;21023;-71
2021/03/05 11:26:24;;;;;;;13.28;7.80;;;;;;;1.52;81.00;98209.59;1756733;80;21193;-71
2021/03/05 11:28:50;;;;;;;9.98;6.72;;;;;;;1.68;80.83;98213.06;1731817;81;21061;-72
2021/03/05 11:31:17;;;;;;;12.70;7.12;;;;;;;1.73;80.19;98215.09;1780706;80;21099;-72
2021/03/05 11:33:44;;;;;;;20.43;10.80;;;;;;;1.59;79.52;98217.56;1731879;81;21221;-71
2021/03/05 11:36:12;;;;;;;18.75;9.53;;;;;;;1.31;81.10;98222.79;1784803;80;21400;-71
2021/03/05 11:38:42;;;;;;;51.48;17.62;;;;;;;1.44;80.61;98216.53;1785149;79;21159;-71
2021/03/05 11:41:08;;;;;;;97.85;30.60;;;;;;;1.36;81.03;98226.95;1785090;80;21059;-71